UUEE/SVO METAR and TAF weather

Enter ICAO airport designator
Station Type Date Time Source
UUEE METAR 2019/08/24 22:30 UTC NOAA

UUEE 242230Z 30003MPS CAVOK 13/12 Q1023 R24L/CLRD62 NOSIG


Station Type Date Time Source
UUEE Decoded METAR 2019/08/24 22:30 UTC NOAA

Station name not available
Aug 24, 2019 - 06:30 PM EDT / 2019.08.24 2230 UTC
Wind: from the WNW (300 degrees) at 7 MPH (6 KT):0
Visibility: greater than 7 mile(s):0
Temperature: 55 F (13 C)
Dew Point: 53 F (12 C)
Relative Humidity: 93%
Pressure (altimeter): 30.21 in. Hg (1023 hPa)
ob: UUEE 242230Z 30003MPS CAVOK 13/12 Q1023 R24L/CLRD62 NOSIG
cycle: 22

Station Type Date Time Source
UUEE TAF 2019/08/24 21:24 UTC NOAA

TAF UUEE 241959Z 2421/2521 31003MPS 9999 SCT030 TX23/2512Z TN11/2503Z
BECMG 2506/2510 35006G12MPS

Example: see airport list